Time;durP1;ratioP1;P1;durP2;ratioP2;P2;SDS_P1;SDS_P2;PMS_P1;PMS_P2;Temp;Humidity;BMP_temperature;BMP_pressure;BME280_temperature;BME280_humidity;BME280_pressure;Samples;Min_cycle;Max_cycle;Signal;HPM_P1;HPM_P2
2023/03/24 00:01:23;;;;;;;3.35;2.10;;;;;;;;;;5023993;28;20042;-78
2023/03/24 00:03:51;;;;;;;5.03;2.00;;;;;;;;;;5013029;28;20588;-78
2023/03/24 00:06:21;;;;;;;4.38;2.10;;;;;;;;;;5012259;28;20057;-78
2023/03/24 00:08:48;;;;;;;8.55;2.28;;;;;;;;;;5012896;28;20050;-78
2023/03/24 00:11:18;;;;;;;5.07;1.92;;;;;;;;;;5012720;28;20123;-78
2023/03/24 00:13:46;;;;;;;5.90;2.38;;;;;;;;;;5010575;28;20061;-78
2023/03/24 00:16:14;;;;;;;4.13;2.10;;;;;;;;;;5024167;28;20299;-77
2023/03/24 00:18:41;;;;;;;3.67;2.40;;;;;;;;;;5012773;28;20049;-77
2023/03/24 00:21:10;;;;;;;8.52;2.50;;;;;;;;;;5012605;28;20041;-78
2023/03/24 00:23:41;;;;;;;5.38;2.55;;;;;;;;;;5010384;28;20038;-78
2023/03/24 00:26:13;;;;;;;4.88;2.30;;;;;;;;;;5010039;28;20034;-77
2023/03/24 00:28:44;;;;;;;4.80;2.50;;;;;;;;;;5025532;28;20164;-77
2023/03/24 00:31:15;;;;;;;4.43;2.47;;;;;;;;;;5024231;28;20049;-77
2023/03/24 00:33:42;;;;;;;6.47;2.33;;;;;;;;;;5010012;28;20364;-77
2023/03/24 00:36:13;;;;;;;3.97;2.33;;;;;;;;;;5009056;28;20141;-75
2023/03/24 00:38:40;;;;;;;4.78;2.38;;;;;;;;;;5008508;28;20104;-78
2023/03/24 00:41:07;;;;;;;7.53;2.50;;;;;;;;;;5024474;28;20517;-78
2023/03/24 00:43:34;;;;;;;8.50;2.40;;;;;;;;;;5026048;28;20042;-78
2023/03/24 00:46:02;;;;;;;5.07;2.20;;;;;;;;;;5023540;28;20064;-78
2023/03/24 00:48:33;;;;;;;4.57;2.22;;;;;;;;;;5010128;28;20042;-78
2023/03/24 00:51:01;;;;;;;5.50;2.47;;;;;;;;;;5012984;28;20060;-77
2023/03/24 00:53:28;;;;;;;5.85;2.20;;;;;;;;;;5031027;28;20116;-77
2023/03/24 00:55:57;;;;;;;4.15;2.00;;;;;;;;;;5029131;28;20113;-78
2023/03/24 00:58:28;;;;;;;4.15;2.20;;;;;;;;;;5030265;28;20055;-78
2023/03/24 01:00:56;;;;;;;4.47;2.38;;;;;;;;;;5009953;28;20050;-78
2023/03/24 01:03:26;;;;;;;4.20;2.03;;;;;;;;;;5027667;28;20060;-77
2023/03/24 01:05:56;;;;;;;3.33;2.22;;;;;;;;;;5029095;28;20037;-77
2023/03/24 01:08:24;;;;;;;4.45;2.63;;;;;;;;;;5027163;28;20370;-77
2023/03/24 01:10:54;;;;;;;4.45;2.10;;;;;;;;;;5028250;28;20041;-77
2023/03/24 01:13:23;;;;;;;4.25;1.90;;;;;;;;;;5026171;28;20037;-78
2023/03/24 01:15:53;;;;;;;5.22;2.85;;;;;;;;;;5008584;28;20076;-77
2023/03/24 01:18:20;;;;;;;5.97;2.40;;;;;;;;;;5047818;28;20037;-78
2023/03/24 01:20:48;;;;;;;4.50;2.15;;;;;;;;;;5046976;28;20049;-77
2023/03/24 01:23:20;;;;;;;6.10;2.33;;;;;;;;;;5046723;28;20512;-78
2023/03/24 01:25:48;;;;;;;6.20;2.50;;;;;;;;;;5047549;28;20040;-76
2023/03/24 01:28:20;;;;;;;5.82;2.38;;;;;;;;;;5047531;28;20123;-77
2023/03/24 01:30:48;;;;;;;5.22;2.25;;;;;;;;;;5046574;28;20048;-77
2023/03/24 01:33:14;;;;;;;6.20;2.35;;;;;;;;;;5080145;28;20033;-76
2023/03/24 01:35:41;;;;;;;3.65;2.30;;;;;;;;;;5050353;28;20132;-77
2023/03/24 01:38:08;;;;;;;5.13;2.67;;;;;;;;;;5059845;28;20363;-78
2023/03/24 01:40:39;;;;;;;3.90;2.08;;;;;;;;;;5057676;28;20053;-78
2023/03/24 01:43:12;;;;;;;6.30;2.30;;;;;;;;;;5050534;28;20061;-77
2023/03/24 01:45:39;;;;;;;4.22;2.20;;;;;;;;;;5046191;28;20041;-78
2023/03/24 01:48:12;;;;;;;7.80;2.20;;;;;;;;;;5046109;28;20338;-77
2023/03/24 01:50:39;;;;;;;5.40;2.42;;;;;;;;;;5080874;28;20273;-77
2023/03/24 01:53:06;;;;;;;5.55;2.35;;;;;;;;;;5031755;28;20041;-77
2023/03/24 01:55:33;;;;;;;4.35;2.22;;;;;;;;;;5025494;28;20587;-78
2023/03/24 01:58:05;;;;;;;5.97;2.20;;;;;;;;;;5026692;28;20114;-78
2023/03/24 02:00:46;;;;;;;3.40;2.30;;;;;;;;;;5024218;28;20103;-76
2023/03/24 02:03:33;;;;;;;4.55;1.90;;;;;;;;;;5026861;28;20043;-76
2023/03/24 02:06:04;;;;;;;3.60;1.80;;;;;;;;;;5029096;28;20528;-77
2023/03/24 02:08:42;;;;;;;5.10;1.80;;;;;;;;;;5030111;28;20041;-77
2023/03/24 02:11:09;;;;;;;4.65;2.17;;;;;;;;;;5063420;28;20117;-77
2023/03/24 02:13:45;;;;;;;3.67;1.73;;;;;;;;;;5030522;28;20037;-77
2023/03/24 02:16:20;;;;;;;4.00;1.98;;;;;;;;;;5027924;28;20470;-77
2023/03/24 02:18:51;;;;;;;3.40;1.60;;;;;;;;;;5030099;28;20053;-77
2023/03/24 02:21:30;;;;;;;3.97;1.90;;;;;;;;;;5031363;28;20045;-77
2023/03/24 02:23:56;;;;;;;2.47;1.67;;;;;;;;;;5029312;28;20084;-78
2023/03/24 02:26:23;;;;;;;7.10;2.17;;;;;;;;;;5028317;28;20047;-78
2023/03/24 02:28:49;;;;;;;2.92;1.60;;;;;;;;;;5032079;28;20453;-77
2023/03/24 02:31:20;;;;;;;5.22;1.80;;;;;;;;;;5011598;28;20049;-78
2023/03/24 02:33:53;;;;;;;2.40;1.50;;;;;;;;;;5029750;28;20060;-78
2023/03/24 02:36:28;;;;;;;4.05;1.95;;;;;;;;;;5028691;28;20040;-77
2023/03/24 02:39:15;;;;;;;4.03;1.90;;;;;;;;;;5029834;28;20042;-78
2023/03/24 02:41:47;;;;;;;3.45;1.90;;;;;;;;;;5029106;28;20133;-78
2023/03/24 02:44:34;;;;;;;3.55;2.00;;;;;;;;;;5031436;28;20151;-78
2023/03/24 02:47:09;;;;;;;2.53;1.77;;;;;;;;;;5028902;28;20057;-78
2023/03/24 02:49:41;;;;;;;3.83;1.77;;;;;;;;;;5038172;28;20490;-77
2023/03/24 02:52:31;;;;;;;3.53;1.77;;;;;;;;;;5031757;28;20053;-78
2023/03/24 02:55:10;;;;;;;5.07;1.73;;;;;;;;;;5036768;28;20084;-78
2023/03/24 02:57:42;;;;;;;4.28;2.08;;;;;;;;;;5065808;28;20045;-78
2023/03/24 03:00:29;;;;;;;4.05;1.98;;;;;;;;;;5057915;28;20049;-78
2023/03/24 03:03:20;;;;;;;4.93;2.30;;;;;;;;;;5031787;28;20049;-78
2023/03/24 03:05:51;;;;;;;3.95;2.20;;;;;;;;;;5030286;28;20046;-77
2023/03/24 03:08:23;;;;;;;5.40;2.03;;;;;;;;;;5029778;28;20052;-77
2023/03/24 03:10:51;;;;;;;5.38;2.38;;;;;;;;;;5028023;28;20470;-77
2023/03/24 03:13:30;;;;;;;3.92;2.25;;;;;;;;;;5028588;28;20042;-77
2023/03/24 03:15:58;;;;;;;6.53;2.40;;;;;;;;;;5025860;28;20053;-77
2023/03/24 03:18:31;;;;;;;4.65;2.58;;;;;;;;;;5061202;28;20045;-77
2023/03/24 03:21:06;;;;;;;8.55;3.00;;;;;;;;;;5027873;28;20541;-78
2023/03/24 03:23:38;;;;;;;5.97;2.72;;;;;;;;;;5028364;28;20065;-78
2023/03/24 03:26:08;;;;;;;6.10;2.58;;;;;;;;;;5028495;28;20581;-77
2023/03/24 03:28:37;;;;;;;4.47;2.55;;;;;;;;;;5029876;28;20053;-77
2023/03/24 03:31:09;;;;;;;5.93;2.70;;;;;;;;;;5028429;28;20422;-78
2023/03/24 03:33:38;;;;;;;6.20;2.53;;;;;;;;;;5030598;28;20076;-77
2023/03/24 03:36:16;;;;;;;5.43;2.65;;;;;;;;;;5028693;28;20045;-77
2023/03/24 03:38:53;;;;;;;5.45;2.85;;;;;;;;;;5029985;28;20144;-78
2023/03/24 03:41:20;;;;;;;6.00;3.00;;;;;;;;;;5028052;28;20501;-77
2023/03/24 03:43:48;;;;;;;5.38;2.53;;;;;;;;;;5028601;28;20127;-78
2023/03/24 03:46:15;;;;;;;5.00;2.58;;;;;;;;;;5059419;28;20505;-78
2023/03/24 03:48:43;;;;;;;3.70;2.10;;;;;;;;;;5062201;28;20049;-77
2023/03/24 03:51:11;;;;;;;5.38;2.28;;;;;;;;;;5030238;28;20037;-78
2023/03/24 03:53:49;;;;;;;5.72;2.22;;;;;;;;;;5028446;28;20057;-77
2023/03/24 03:56:21;;;;;;;7.28;2.25;;;;;;;;;;5011316;28;20549;-78
2023/03/24 03:59:05;;;;;;;5.82;2.38;;;;;;;;;;5028968;28;20501;-77
2023/03/24 04:01:36;;;;;;;12.95;3.72;;;;;;;;;;5059314;28;20470;-77
2023/03/24 04:04:40;;;;;;;4.20;2.08;;;;;;;;;;5018501;28;20092;-78
2023/03/24 04:07:41;;;;;;;8.15;2.50;;;;;;;;;;5027881;28;20107;-77
2023/03/24 04:10:40;;;;;;;5.20;2.25;;;;;;;;;;5007571;28;20030;-79
2023/03/24 04:13:10;;;;;;;7.82;2.40;;;;;;;;;;5063255;28;20037;-79
2023/03/24 04:16:19;;;;;;;4.47;2.10;;;;;;;;;;5026505;28;20143;-77
2023/03/24 04:19:34;;;;;;;5.15;2.17;;;;;;;;;;5029001;28;20037;-77
2023/03/24 04:22:06;;;;;;;4.25;2.22;;;;;;;;;;5029697;28;20509;-77
2023/03/24 04:24:56;;;;;;;5.68;2.47;;;;;;;;;;5060741;28;20440;-77
2023/03/24 04:27:27;;;;;;;8.60;2.38;;;;;;;;;;5006929;28;20075;-77
2023/03/24 04:30:22;;;;;;;7.30;2.40;;;;;;;;;;5027425;28;20069;-79
2023/03/24 04:32:57;;;;;;;9.10;2.38;;;;;;;;;;5061211;28;20060;-78
2023/03/24 04:35:33;;;;;;;5.78;2.30;;;;;;;;;;5028882;28;20048;-78
2023/03/24 04:38:16;;;;;;;6.35;2.42;;;;;;;;;;5027828;28;20041;-78
2023/03/24 04:40:49;;;;;;;7.00;2.28;;;;;;;;;;5027609;28;20038;-77
2023/03/24 04:43:17;;;;;;;5.05;2.67;;;;;;;;;;5026857;28;20068;-77
2023/03/24 04:45:49;;;;;;;6.72;2.15;;;;;;;;;;5025516;28;20050;-77
2023/03/24 04:48:34;;;;;;;4.53;2.00;;;;;;;;;;5060271;28;20124;-77
2023/03/24 04:51:18;;;;;;;3.45;2.17;;;;;;;;;;5060474;28;20048;-77
2023/03/24 04:53:54;;;;;;;5.85;2.20;;;;;;;;;;5027635;28;20115;-77
2023/03/24 04:56:31;;;;;;;4.68;2.00;;;;;;;;;;5010187;28;20124;-75
2023/03/24 04:59:07;;;;;;;;;;;;;;;;;;5026022;28;20054;-77
2023/03/24 05:01:36;;;;;;;3.75;2.00;;;;;;;;;;5024993;28;19943;-77
2023/03/24 05:04:25;;;;;;;5.70;2.35;;;;;;;;;;5028047;28;20049;-78
2023/03/24 05:06:52;;;;;;;4.30;2.20;;;;;;;;;;5028151;28;20384;-77
2023/03/24 05:09:23;;;;;;;6.13;2.22;;;;;;;;;;5029998;28;20124;-77
2023/03/24 05:11:50;;;;;;;3.72;2.08;;;;;;;;;;5028028;28;20456;-77
2023/03/24 05:14:21;;;;;;;4.95;2.00;;;;;;;;;;5030487;28;20490;-77
2023/03/24 05:16:47;;;;;;;3.80;2.05;;;;;;;;;;5011597;28;20352;-78
2023/03/24 05:19:18;;;;;;;3.33;2.03;;;;;;;;;;5028440;28;20045;-78
2023/03/24 05:21:46;;;;;;;4.07;1.90;;;;;;;;;;5029302;28;20045;-77
2023/03/24 05:24:13;;;;;;;6.10;2.17;;;;;;;;;;5030585;28;20065;-77
2023/03/24 05:26:40;;;;;;;4.55;2.00;;;;;;;;;;5032756;28;20064;-78
2023/03/24 05:29:14;;;;;;;5.70;2.10;;;;;;;;;;5031164;28;20041;-78
2023/03/24 05:31:40;;;;;;;5.97;1.98;;;;;;;;;;5025768;28;20120;-77
2023/03/24 05:34:09;;;;;;;3.38;2.10;;;;;;;;;;5024880;28;20095;-78
2023/03/24 05:37:05;;;;;;;6.63;1.90;;;;;;;;;;5007171;28;20038;-79
2023/03/24 05:39:32;;;;;;;3.85;1.85;;;;;;;;;;5005284;28;20550;-78
2023/03/24 05:42:16;;;;;;;4.53;1.90;;;;;;;;;;5007284;28;20049;-78
2023/03/24 05:44:42;;;;;;;5.57;2.00;;;;;;;;;;5004888;28;20034;-78
2023/03/24 05:47:18;;;;;;;2.83;1.80;;;;;;;;;;4990448;28;20381;-78
2023/03/24 05:49:45;;;;;;;4.80;2.08;;;;;;;;;;5005891;28;20228;-78
2023/03/24 05:52:15;;;;;;;3.80;2.13;;;;;;;;;;5007539;28;20048;-78
2023/03/24 05:54:44;;;;;;;5.28;2.40;;;;;;;;;;5050036;28;20279;-78
2023/03/24 05:57:19;;;;;;;3.83;1.90;;;;;;;;;;5027768;28;20042;-79
2023/03/24 06:00:17;;;;;;;4.93;2.10;;;;;;;;;;5021783;28;20467;-78
2023/03/24 06:03:01;;;;;;;5.38;2.33;;;;;;;;;;5025348;28;20168;-78
2023/03/24 06:05:46;;;;;;;4.47;2.30;;;;;;;;;;5026811;28;20099;-78
2023/03/24 06:08:15;;;;;;;3.45;2.00;;;;;;;;;;5058193;28;20049;-78
2023/03/24 06:10:42;;;;;;;6.43;2.08;;;;;;;;;;5023614;28;20203;-78
2023/03/24 06:13:08;;;;;;;4.53;2.00;;;;;;;;;;5025495;28;20052;-78
2023/03/24 06:15:41;;;;;;;4.63;2.10;;;;;;;;;;5021970;28;20061;-78
2023/03/24 06:18:35;;;;;;;5.85;2.30;;;;;;;;;;5025178;28;20033;-78
2023/03/24 06:21:11;;;;;;;5.57;2.50;;;;;;;;;;5025471;28;20614;-78
2023/03/24 06:23:40;;;;;;;3.05;1.80;;;;;;;;;;5009911;28;20041;-77
2023/03/24 06:26:10;;;;;;;3.53;2.40;;;;;;;;;;5025004;28;20053;-77
2023/03/24 06:28:56;;;;;;;4.88;2.08;;;;;;;;;;5022216;28;20053;-77
2023/03/24 06:31:26;;;;;;;5.63;2.15;;;;;;;;;;5022578;28;22848;-78
2023/03/24 06:33:53;;;;;;;4.28;1.90;;;;;;;;;;5022205;28;20042;-78
2023/03/24 06:36:22;;;;;;;3.42;1.92;;;;;;;;;;5023162;28;20128;-78
2023/03/24 06:38:48;;;;;;;3.25;2.05;;;;;;;;;;5019138;28;20056;-78
2023/03/24 06:41:21;;;;;;;4.80;2.25;;;;;;;;;;5016804;28;20053;-78
2023/03/24 06:43:52;;;;;;;4.85;2.00;;;;;;;;;;5011563;28;20414;-77
2023/03/24 06:46:19;;;;;;;2.88;1.80;;;;;;;;;;5033779;28;20053;-78
2023/03/24 06:48:47;;;;;;;3.58;1.95;;;;;;;;;;5021852;28;20556;-76
2023/03/24 06:51:14;;;;;;;4.20;2.13;;;;;;;;;;5029784;28;20056;-77
2023/03/24 06:53:44;;;;;;;4.63;2.25;;;;;;;;;;5060191;28;20046;-77
2023/03/24 06:56:17;;;;;;;4.00;1.95;;;;;;;;;;5059213;28;20092;-78
2023/03/24 06:58:49;;;;;;;6.03;2.10;;;;;;;;;;5024810;28;20053;-76
2023/03/24 07:01:24;;;;;;;4.60;2.13;;;;;;;;;;5024601;28;20518;-77
2023/03/24 07:04:04;;;;;;;5.20;2.08;;;;;;;;;;5060837;28;20133;-77
2023/03/24 07:06:45;;;;;;;4.30;2.10;;;;;;;;;;5027124;28;20449;-77
2023/03/24 07:09:33;;;;;;;5.78;2.47;;;;;;;;;;5029123;28;20051;-77
2023/03/24 07:12:02;;;;;;;3.63;1.90;;;;;;;;;;5043915;28;20079;-77
2023/03/24 07:14:29;;;;;;;3.60;1.90;;;;;;;;;;5027331;28;20045;-77
2023/03/24 07:16:58;;;;;;;3.70;1.83;;;;;;;;;;5023668;28;20266;-76
2023/03/24 07:19:38;;;;;;;3.22;1.70;;;;;;;;;;5045949;28;20052;-77
2023/03/24 07:22:35;;;;;;;5.15;2.00;;;;;;;;;;4990041;28;20531;-77
2023/03/24 07:25:32;;;;;;;4.32;1.95;;;;;;;;;;5003337;28;20065;-78
2023/03/24 07:28:25;;;;;;;4.40;2.00;;;;;;;;;;5008571;28;20418;-77
2023/03/24 07:30:52;;;;;;;4.13;2.17;;;;;;;;;;5006767;28;20096;-77
2023/03/24 07:33:23;;;;;;;4.53;1.77;;;;;;;;;;5009521;28;20042;-77
2023/03/24 07:35:52;;;;;;;7.45;2.15;;;;;;;;;;5011371;28;20042;-77
2023/03/24 07:38:19;;;;;;;3.53;2.00;;;;;;;;;;5035107;28;20044;-77
2023/03/24 07:40:49;;;;;;;4.55;2.00;;;;;;;;;;5031814;28;20046;-77
2023/03/24 07:43:16;;;;;;;6.03;1.77;;;;;;;;;;5011784;28;20060;-76
2023/03/24 07:46:05;;;;;;;2.58;1.70;;;;;;;;;;5010641;28;20406;-78
2023/03/24 07:48:35;;;;;;;4.07;1.90;;;;;;;;;;5044257;28;20045;-77
2023/03/24 07:51:02;;;;;;;4.65;2.15;;;;;;;;;;5007497;28;20072;-78
2023/03/24 07:54:01;;;;;;;5.32;1.83;;;;;;;;;;5004525;28;20045;-78
2023/03/24 07:56:40;;;;;;;4.82;2.00;;;;;;;;;;5028311;28;20045;-77
2023/03/24 07:59:10;;;;;;;4.82;2.38;;;;;;;;;;5009600;28;20052;-78
2023/03/24 08:02:03;;;;;;;5.43;2.20;;;;;;;;;;5019278;28;20096;-78
2023/03/24 08:04:55;;;;;;;5.78;1.98;;;;;;;;;;5009351;28;20062;-77
2023/03/24 08:07:37;;;;;;;4.15;2.35;;;;;;;;;;5015317;28;20045;-78
2023/03/24 08:10:05;;;;;;;6.43;2.15;;;;;;;;;;5010589;28;20065;-78
2023/03/24 08:12:32;;;;;;;3.88;2.10;;;;;;;;;;5012754;28;20042;-77
2023/03/24 08:15:00;;;;;;;6.22;2.13;;;;;;;;;;5013424;28;20474;-78
2023/03/24 08:17:26;;;;;;;3.58;1.83;;;;;;;;;;5023739;28;20034;-78
2023/03/24 08:19:53;;;;;;;4.07;2.15;;;;;;;;;;5014841;28;20256;-77
2023/03/24 08:22:26;;;;;;;6.63;2.05;;;;;;;;;;5012015;28;20050;-76
2023/03/24 08:24:53;;;;;;;5.72;1.95;;;;;;;;;;5010257;28;20501;-77
2023/03/24 08:27:20;;;;;;;3.95;2.25;;;;;;;;;;5011263;28;20414;-77
2023/03/24 08:29:46;;;;;;;5.45;2.58;;;;;;;;;;5010911;28;20137;-77
2023/03/24 08:32:13;;;;;;;4.05;2.38;;;;;;;;;;5017585;28;20117;-78
2023/03/24 08:34:39;;;;;;;4.72;2.67;;;;;;;;;;5012091;28;20089;-78
2023/03/24 08:37:07;;;;;;;5.32;2.70;;;;;;;;;;5009173;28;20545;-77
2023/03/24 08:39:34;;;;;;;5.90;2.47;;;;;;;;;;5009193;28;20046;-78
2023/03/24 08:42:01;;;;;;;4.35;2.50;;;;;;;;;;5008556;28;20084;-78
2023/03/24 08:44:29;;;;;;;4.13;2.13;;;;;;;;;;5008341;28;20537;-78
2023/03/24 08:47:01;;;;;;;5.55;2.35;;;;;;;;;;5004890;28;20046;-78
2023/03/24 08:49:28;;;;;;;6.78;2.40;;;;;;;;;;5007389;28;20045;-77
2023/03/24 08:51:54;;;;;;;4.82;2.08;;;;;;;;;;5005945;28;20053;-78
2023/03/24 08:54:23;;;;;;;5.82;2.50;;;;;;;;;;5018410;28;20343;-78
2023/03/24 08:56:50;;;;;;;4.03;2.42;;;;;;;;;;5025612;28;20071;-77
2023/03/24 08:59:17;;;;;;;6.95;2.70;;;;;;;;;;5008926;28;20045;-78
2023/03/24 09:01:43;;;;;;;7.20;2.47;;;;;;;;;;5006952;28;20052;-79
2023/03/24 09:04:11;;;;;;;6.88;2.33;;;;;;;;;;5008681;28;20061;-78
2023/03/24 09:06:38;;;;;;;4.25;2.50;;;;;;;;;;5007380;28;20418;-78
2023/03/24 09:09:06;;;;;;;3.20;2.10;;;;;;;;;;5009551;28;20077;-78
2023/03/24 09:11:33;;;;;;;5.32;2.05;;;;;;;;;;5008617;28;20046;-79
2023/03/24 09:14:03;;;;;;;4.93;2.20;;;;;;;;;;5008676;28;20125;-78
2023/03/24 09:16:30;;;;;;;4.15;2.22;;;;;;;;;;5007802;28;20054;-78
2023/03/24 09:18:57;;;;;;;4.47;1.90;;;;;;;;;;5012861;28;20123;-78
2023/03/24 09:21:24;;;;;;;4.43;2.10;;;;;;;;;;5008712;28;20073;-79
2023/03/24 09:23:51;;;;;;;4.57;1.75;;;;;;;;;;5010523;28;20054;-77
2023/03/24 09:26:19;;;;;;;4.30;1.85;;;;;;;;;;5039357;28;20038;-77
2023/03/24 09:28:45;;;;;;;4.22;2.00;;;;;;;;;;5006991;28;20278;-77
2023/03/24 09:31:12;;;;;;;3.58;1.80;;;;;;;;;;5004058;28;20162;-77
2023/03/24 09:33:40;;;;;;;4.97;1.30;;;;;;;;;;5007770;28;20386;-77
2023/03/24 09:36:06;;;;;;;4.60;1.50;;;;;;;;;;5008007;28;20048;-78
2023/03/24 09:38:34;;;;;;;4.18;1.60;;;;;;;;;;5008325;28;20085;-78
2023/03/24 09:41:02;;;;;;;4.68;1.50;;;;;;;;;;5007582;28;20399;-78
2023/03/24 09:43:36;;;;;;;2.95;1.33;;;;;;;;;;5008017;28;20050;-76
2023/03/24 09:46:05;;;;;;;1.70;1.15;;;;;;;;;;5004681;28;20079;-77
2023/03/24 09:48:38;;;;;;;2.05;1.20;;;;;;;;;;5006850;28;20088;-78
2023/03/24 09:51:11;;;;;;;2.72;1.13;;;;;;;;;;5005689;28;20161;-78
2023/03/24 09:53:39;;;;;;;2.45;1.10;;;;;;;;;;5023331;28;20124;-77
2023/03/24 09:56:11;;;;;;;1.55;0.88;;;;;;;;;;5025910;28;20067;-77
2023/03/24 09:58:40;;;;;;;2.17;1.10;;;;;;;;;;5027216;28;20041;-76
2023/03/24 10:01:14;;;;;;;3.70;1.20;;;;;;;;;;5024948;28;20482;-77
2023/03/24 10:03:42;;;;;;;2.90;1.05;;;;;;;;;;5057609;28;20041;-75
2023/03/24 10:06:14;;;;;;;0.80;0.70;;;;;;;;;;5026003;28;20117;-76
2023/03/24 10:08:42;;;;;;;2.45;1.13;;;;;;;;;;5025232;28;20432;-78
2023/03/24 10:11:20;;;;;;;1.33;1.00;;;;;;;;;;5025390;28;20040;-77
2023/03/24 10:14:03;;;;;;;1.85;1.10;;;;;;;;;;5025967;28;20117;-78
2023/03/24 10:16:30;;;;;;;2.60;1.10;;;;;;;;;;5020914;28;20059;-78
2023/03/24 10:19:15;;;;;;;0.93;0.73;;;;;;;;;;5026495;28;20112;-78
2023/03/24 10:21:50;;;;;;;1.63;0.88;;;;;;;;;;5025413;28;20090;-79
2023/03/24 10:24:35;;;;;;;2.60;1.00;;;;;;;;;;5024212;28;20065;-77
2023/03/24 10:27:09;;;;;;;2.38;1.30;;;;;;;;;;5029390;28;20041;-79
2023/03/24 10:29:37;;;;;;;1.75;0.95;;;;;;;;;;5030053;28;20103;-79
2023/03/24 10:32:36;;;;;;;2.95;0.90;;;;;;;;;;5028261;28;20046;-79
2023/03/24 10:35:08;;;;;;;1.20;0.80;;;;;;;;;;4986504;28;20390;-77
2023/03/24 10:37:36;;;;;;;1.65;1.00;;;;;;;;;;5030147;28;20045;-77
2023/03/24 10:40:11;;;;;;;1.55;0.90;;;;;;;;;;5029916;28;20072;-78
2023/03/24 10:42:39;;;;;;;1.42;0.85;;;;;;;;;;5030138;28;20046;-78
2023/03/24 10:45:10;;;;;;;1.95;0.90;;;;;;;;;;5028790;28;20051;-78
2023/03/24 10:47:38;;;;;;;1.67;1.08;;;;;;;;;;5061215;28;20450;-79
2023/03/24 10:50:07;;;;;;;1.38;0.88;;;;;;;;;;5028732;28;20079;-78
2023/03/24 10:52:40;;;;;;;1.52;0.80;;;;;;;;;;5030989;28;20041;-77
2023/03/24 10:55:13;;;;;;;1.08;0.80;;;;;;;;;;5062750;28;20041;-77
2023/03/24 10:57:47;;;;;;;2.70;1.08;;;;;;;;;;5031826;28;20049;-77
2023/03/24 11:00:23;;;;;;;1.65;0.80;;;;;;;;;;5028928;28;20448;-78
2023/03/24 11:03:00;;;;;;;3.75;0.90;;;;;;;;;;5031008;28;20337;-77
2023/03/24 11:05:32;;;;;;;1.20;0.80;;;;;;;;;;5026256;28;20091;-77
2023/03/24 11:08:22;;;;;;;1.27;0.90;;;;;;;;;;5032421;28;20053;-78
2023/03/24 11:10:49;;;;;;;2.00;0.80;;;;;;;;;;5011146;28;20446;-76
2023/03/24 11:13:18;;;;;;;2.20;0.82;;;;;;;;;;5029400;28;20040;-77
2023/03/24 11:15:52;;;;;;;1.10;0.80;;;;;;;;;;5027288;28;20049;-77
2023/03/24 11:18:19;;;;;;;1.50;1.00;;;;;;;;;;5030658;28;20422;-77
2023/03/24 11:20:46;;;;;;;1.88;1.00;;;;;;;;;;5028767;28;20124;-76
2023/03/24 11:23:31;;;;;;;1.45;0.80;;;;;;;;;;5028511;28;20449;-78
2023/03/24 11:26:21;;;;;;;2.17;0.98;;;;;;;;;;5029403;28;20044;-77
2023/03/24 11:28:52;;;;;;;2.55;1.00;;;;;;;;;;5027371;28;20050;-78
2023/03/24 11:31:23;;;;;;;2.05;0.70;;;;;;;;;;5026434;28;20084;-78
2023/03/24 11:33:58;;;;;;;2.20;0.82;;;;;;;;;;5042270;28;20056;-78
2023/03/24 11:36:34;;;;;;;0.98;0.63;;;;;;;;;;5059875;28;20041;-78
2023/03/24 11:39:10;;;;;;;2.47;0.80;;;;;;;;;;5027454;28;20053;-77
2023/03/24 11:41:41;;;;;;;1.60;0.88;;;;;;;;;;5017607;28;20068;-76
2023/03/24 11:44:18;;;;;;;1.73;0.80;;;;;;;;;;5007959;28;20053;-77
2023/03/24 11:46:50;;;;;;;1.27;0.70;;;;;;;;;;4987085;28;20046;-77
2023/03/24 11:49:18;;;;;;;2.55;0.82;;;;;;;;;;5022803;28;20045;-77
2023/03/24 11:51:49;;;;;;;4.97;1.23;;;;;;;;;;5012162;28;20046;-78
2023/03/24 11:54:17;;;;;;;3.05;0.98;;;;;;;;;;5024680;28;20499;-78
2023/03/24 11:56:45;;;;;;;1.33;0.95;;;;;;;;;;5026971;28;20100;-79
2023/03/24 11:59:23;;;;;;;1.92;0.90;;;;;;;;;;5011845;28;20050;-79
2023/03/24 12:01:52;;;;;;;2.13;0.82;;;;;;;;;;5007676;28;20053;-78
2023/03/24 12:04:35;;;;;;;1.67;1.10;;;;;;;;;;5040709;28;20058;-79
2023/03/24 12:07:21;;;;;;;3.22;0.85;;;;;;;;;;5008415;28;20073;-78
2023/03/24 12:09:54;;;;;;;3.05;1.02;;;;;;;;;;5008979;28;20038;-77
2023/03/24 12:12:24;;;;;;;1.52;0.95;;;;;;;;;;5026638;28;20120;-78
2023/03/24 12:14:53;;;;;;;1.70;1.02;;;;;;;;;;5025533;28;20497;-77
2023/03/24 12:17:27;;;;;;;2.47;1.10;;;;;;;;;;5026003;28;20042;-76
2023/03/24 12:19:57;;;;;;;1.73;1.20;;;;;;;;;;5017254;28;20103;-78
2023/03/24 12:22:39;;;;;;;2.83;1.30;;;;;;;;;;5019921;28;20125;-78
2023/03/24 12:25:19;;;;;;;3.05;1.40;;;;;;;;;;5023772;28;20041;-78
2023/03/24 12:28:05;;;;;;;2.70;1.38;;;;;;;;;;5023415;28;20214;-77
2023/03/24 12:30:40;;;;;;;6.70;1.67;;;;;;;;;;5022056;28;20053;-77
2023/03/24 12:33:22;;;;;;;2.58;1.60;;;;;;;;;;5021596;28;20100;-78
2023/03/24 12:36:22;;;;;;;3.17;1.73;;;;;;;;;;5023354;28;20053;-78
2023/03/24 12:38:58;;;;;;;1.65;1.40;;;;;;;;;;5019225;28;20052;-78
2023/03/24 12:41:44;;;;;;;3.72;1.65;;;;;;;;;;5026956;28;20049;-78
2023/03/24 12:44:17;;;;;;;4.40;1.58;;;;;;;;;;5027126;28;20150;-78
2023/03/24 12:47:08;;;;;;;2.08;1.50;;;;;;;;;;5024014;28;20099;-78
2023/03/24 12:49:38;;;;;;;2.95;1.48;;;;;;;;;;5024579;28;20529;-78
2023/03/24 12:52:23;;;;;;;4.38;1.70;;;;;;;;;;5027220;28;20069;-78
2023/03/24 12:54:50;;;;;;;3.47;1.40;;;;;;;;;;5025019;28;20052;-79
2023/03/24 12:57:18;;;;;;;1.77;1.40;;;;;;;;;;5028460;28;20502;-79
2023/03/24 12:59:56;;;;;;;2.67;1.38;;;;;;;;;;5028600;28;20497;-79
2023/03/24 13:02:26;;;;;;;2.22;1.15;;;;;;;;;;5024431;28;20072;-78
2023/03/24 13:04:55;;;;;;;2.67;1.30;;;;;;;;;;5029337;28;20406;-79
2023/03/24 13:07:27;;;;;;;1.52;1.20;;;;;;;;;;5029897;28;20103;-79
2023/03/24 13:10:24;;;;;;;1.70;1.50;;;;;;;;;;5031841;28;20441;-79
2023/03/24 13:12:59;;;;;;;2.28;1.10;;;;;;;;;;5025856;28;20054;-78
2023/03/24 13:15:32;;;;;;;1.52;0.70;;;;;;;;;;5025345;28;20501;-78
2023/03/24 13:18:00;;;;;;;4.80;1.08;;;;;;;;;;5024532;28;20067;-77
2023/03/24 13:20:26;;;;;;;5.10;1.20;;;;;;;;;;5025123;28;20049;-75
2023/03/24 13:22:54;;;;;;;3.80;1.05;;;;;;;;;;5020845;28;20418;-78
2023/03/24 13:25:29;;;;;;;5.97;1.27;;;;;;;;;;5019228;28;20037;-78
2023/03/24 13:27:58;;;;;;;4.53;1.40;;;;;;;;;;5024785;28;20299;-78
2023/03/24 13:30:24;;;;;;;5.18;1.48;;;;;;;;;;5022676;28;20164;-77
2023/03/24 13:32:53;;;;;;;3.03;1.13;;;;;;;;;;5028954;28;20084;-77
2023/03/24 13:35:40;;;;;;;7.90;1.30;;;;;;;;;;5028786;28;20077;-77
2023/03/24 13:38:21;;;;;;;6.53;1.90;;;;;;;;;;5024593;28;20099;-77
2023/03/24 13:40:51;;;;;;;6.47;1.85;;;;;;;;;;5032226;28;20084;-76
2023/03/24 13:43:19;;;;;;;6.40;1.35;;;;;;;;;;5034252;28;20180;-77
2023/03/24 13:45:50;;;;;;;5.95;2.25;;;;;;;;;;5026057;28;20049;-76
2023/03/24 13:48:19;;;;;;;5.30;1.70;;;;;;;;;;5025769;28;20045;-77
2023/03/24 13:50:45;;;;;;;4.07;1.65;;;;;;;;;;5027170;28;20053;-76
2023/03/24 13:53:13;;;;;;;6.85;1.70;;;;;;;;;;5026562;28;20103;-77
2023/03/24 13:55:45;;;;;;;8.38;2.00;;;;;;;;;;5061057;28;20071;-77
2023/03/24 13:58:17;;;;;;;6.30;1.70;;;;;;;;;;5024689;28;20057;-77
2023/03/24 14:00:47;;;;;;;;;;;;;;;;;;5008225;28;20064;-77
2023/03/24 14:03:29;;;;;;;7.03;1.73;;;;;;;;;;5004293;28;19944;-78
2023/03/24 14:05:59;;;;;;;5.13;2.30;;;;;;;;;;5025660;28;20119;-77
2023/03/24 14:08:43;;;;;;;7.22;2.00;;;;;;;;;;5023873;28;20053;-78
2023/03/24 14:11:48;;;;;;;8.20;2.15;;;;;;;;;;5025489;28;20049;-76
2023/03/24 14:14:14;;;;;;;7.22;1.90;;;;;;;;;;5003265;28;20522;-77
2023/03/24 14:17:02;;;;;;;6.20;2.10;;;;;;;;;;4998144;28;20253;-77
2023/03/24 14:19:31;;;;;;;6.47;1.92;;;;;;;;;;5003535;28;20042;-77
2023/03/24 14:22:03;;;;;;;4.28;1.88;;;;;;;;;;5037137;28;20042;-77
2023/03/24 14:24:31;;;;;;;4.85;1.98;;;;;;;;;;5011908;28;20125;-77
2023/03/24 14:26:58;;;;;;;5.30;2.13;;;;;;;;;;5004275;28;20048;-77
2023/03/24 14:29:34;;;;;;;4.35;1.90;;;;;;;;;;5005901;28;20042;-77
2023/03/24 14:32:01;;;;;;;4.25;1.85;;;;;;;;;;5003527;28;20053;-77
2023/03/24 14:34:49;;;;;;;6.45;1.85;;;;;;;;;;4989467;28;20415;-77
2023/03/24 14:37:17;;;;;;;5.85;2.25;;;;;;;;;;5005099;28;20120;-77
2023/03/24 14:39:47;;;;;;;4.63;1.70;;;;;;;;;;5004961;28;20081;-77
2023/03/24 14:42:26;;;;;;;5.20;1.85;;;;;;;;;;5004197;28;20467;-77
2023/03/24 14:44:54;;;;;;;6.40;1.83;;;;;;;;;;5004016;28;20054;-76
2023/03/24 14:47:23;;;;;;;3.95;1.70;;;;;;;;;;5022079;28;20045;-76
2023/03/24 14:49:51;;;;;;;4.32;1.33;;;;;;;;;;5024368;28;20045;-76
2023/03/24 14:52:20;;;;;;;4.75;1.65;;;;;;;;;;5025250;28;20406;-74
2023/03/24 14:54:52;;;;;;;5.80;1.30;;;;;;;;;;5024941;28;20073;-76
2023/03/24 14:57:26;;;;;;;6.55;1.50;;;;;;;;;;5024619;28;20137;-75
2023/03/24 15:00:11;;;;;;;3.45;1.33;;;;;;;;;;5023975;28;20057;-76
2023/03/24 15:02:46;;;;;;;6.95;2.03;;;;;;;;;;5021816;28;20456;-76
2023/03/24 15:05:21;;;;;;;3.40;1.73;;;;;;;;;;5024945;28;20206;-76
2023/03/24 15:07:59;;;;;;;4.32;1.95;;;;;;;;;;5022449;28;20049;-76
2023/03/24 15:10:30;;;;;;;3.72;1.70;;;;;;;;;;5018042;28;20320;-77
2023/03/24 15:12:57;;;;;;;7.70;2.10;;;;;;;;;;5022261;28;20115;-77
2023/03/24 15:15:24;;;;;;;5.00;2.55;;;;;;;;;;5011620;28;20536;-77
2023/03/24 15:17:51;;;;;;;4.63;2.10;;;;;;;;;;5043476;28;20056;-77
2023/03/24 15:20:27;;;;;;;6.78;1.90;;;;;;;;;;5044752;28;20116;-77